Evansville, Pennsylvania
Current Conditions -  °F | °C
As of 9:54 AM on Friday 28 Nov 2014 (Local Time) from KRDG Reporting Station
Scattered Clouds Scattered Clouds  
Wind Chill: 26°   Ceiling: Unl
Heat Index: 35°   Visibility: 10mi
Dew Point: 22°   Wind: 14mph
Humidity: 59%   Direction: 310°NW
Pressure: 30.24"   Gusts: NA
Location:  40.4504°N, 75.8012°W
Report Text: KRDG 281454Z 31012KT 10SM FEW038 SCT065 02/M06 A3024 RMK AO2 SLP249 T00171056 51020
Loading
Personal Weather Stations






























Interactive Weather Map New forecast layout! Learn more

10-Day Weather Forecast

Advertisements
Track Severe Weather on mobile